createdAt,value
2023-02-22T00:00:48.779Z,101327.59
2023-02-22T00:03:25.023Z,101326.63
2023-02-22T00:06:04.358Z,101324.66
2023-02-22T00:08:34.622Z,101314.13
2023-02-22T00:11:03.509Z,101319.75
2023-02-22T00:13:30.511Z,101311.69
2023-02-22T00:15:58.167Z,101317.59
2023-02-22T00:18:27.992Z,101321.38
2023-02-22T00:21:00.304Z,101317.84
2023-02-22T00:23:29.559Z,101314.41
2023-02-22T00:25:58.713Z,101317.25
2023-02-22T00:28:25.545Z,101315.06
2023-02-22T00:30:52.740Z,101316.53
2023-02-22T00:33:19.356Z,101315.09
2023-02-22T00:35:46.266Z,101318.91
2023-02-22T00:38:14.820Z,101323.75
2023-02-22T00:40:41.460Z,101321.38
2023-02-22T00:43:08.096Z,101329.03
2023-02-22T00:45:36.636Z,101328.63
2023-02-22T00:48:05.393Z,101331.34
2023-02-22T00:50:32.543Z,101324.91
2023-02-22T00:53:01.571Z,101319.25
2023-02-22T00:55:34.234Z,101316.47
2023-02-22T00:58:02.091Z,101310.25
2023-02-22T01:00:33.953Z,101306.94
2023-02-22T01:03:00.485Z,101315.06
2023-02-22T01:05:29.243Z,101309.41
2023-02-22T01:07:57.135Z,101303.53
2023-02-22T01:10:25.704Z,101299.75
2023-02-22T01:12:52.761Z,101301.75
2023-02-22T01:15:23.898Z,101301.50
2023-02-22T01:17:53.530Z,101294.69
2023-02-22T01:20:25.979Z,101292.97
2023-02-22T01:22:54.676Z,101290.53
2023-02-22T01:25:23.997Z,101294.84
2023-02-22T01:27:51.722Z,101287.75
2023-02-22T01:30:24.054Z,101289.97
2023-02-22T01:32:53.558Z,101283.50
2023-02-22T01:35:23.901Z,101288.00
2023-02-22T01:37:50.333Z,101284.50
2023-02-22T01:40:23.751Z,101278.66
2023-02-22T01:42:57.787Z,101275.97
2023-02-22T01:45:30.651Z,101278.91
2023-02-22T01:48:01.982Z,101270.34
2023-02-22T01:50:30.217Z,101268.16
2023-02-22T01:52:56.776Z,101269.13
2023-02-22T01:55:23.531Z,101269.75
2023-02-22T01:57:49.974Z,101265.22
2023-02-22T02:00:21.153Z,101269.75
2023-02-22T02:03:01.778Z,101260.59
2023-02-22T02:05:31.718Z,101258.66
2023-02-22T02:08:03.563Z,101249.75
2023-02-22T02:10:31.732Z,101255.72
2023-02-22T02:12:58.571Z,101251.94
2023-02-22T02:15:32.207Z,101249.75
2023-02-22T02:18:06.028Z,101252.09
2023-02-22T02:20:42.153Z,101249.88
2023-02-22T02:23:34.477Z,101245.09
2023-02-22T02:26:29.028Z,101245.09
2023-02-22T02:29:21.596Z,101246.31
2023-02-22T02:32:06.327Z,101225.47
2023-02-22T02:34:40.658Z,101228.31
2023-02-22T02:37:28.082Z,101228.56
2023-02-22T02:40:11.380Z,101225.63
2023-02-22T02:43:15.257Z,101210.16
2023-02-22T02:45:57.383Z,101215.38
2023-02-22T02:48:28.193Z,101215.63
2023-02-22T02:50:58.640Z,101211.00
2023-02-22T02:53:34.312Z,101200.78
2023-02-22T02:56:00.739Z,101198.19
2023-02-22T02:58:27.951Z,101205.41
2023-02-22T03:00:58.443Z,101206.63
2023-02-22T03:03:52.466Z,101204.16
2023-02-22T03:06:40.530Z,101202.84
2023-02-22T03:09:39.038Z,101200.91
2023-02-22T03:12:32.666Z,101195.88
2023-02-22T03:15:17.210Z,101195.41
2023-02-22T03:17:54.082Z,101191.88
2023-02-22T03:20:34.023Z,101190.78
2023-02-22T03:23:10.936Z,101182.72
2023-02-22T03:25:43.200Z,101188.22
2023-02-22T03:28:12.958Z,101180.56
2023-02-22T03:30:46.738Z,101190.03
2023-02-22T03:33:20.388Z,101178.09
2023-02-22T03:35:56.770Z,101174.81
2023-02-22T03:38:27.792Z,101180.19
2023-02-22T03:40:59.284Z,101178.25
2023-02-22T03:43:31.478Z,101180.44
2023-02-22T03:45:59.372Z,101171.81
2023-02-22T03:48:36.467Z,101176.78
2023-02-22T03:51:04.517Z,101177.00
2023-02-22T03:53:33.940Z,101174.97
2023-02-22T03:56:02.962Z,101173.47
2023-02-22T03:58:33.021Z,101167.88
2023-02-22T04:00:59.809Z,101162.41
2023-02-22T04:03:26.307Z,101164.97
2023-02-22T04:05:52.771Z,101165.22
2023-02-22T04:08:19.311Z,101164.63
2023-02-22T04:10:45.833Z,101161.31
2023-02-22T04:13:14.551Z,101159.50
2023-02-22T04:15:41.046Z,101157.19
2023-02-22T04:18:07.557Z,101149.38
2023-02-22T04:20:34.907Z,101151.56
2023-02-22T04:23:01.386Z,101150.81
2023-02-22T04:25:27.970Z,101149.25
2023-02-22T04:27:54.379Z,101145.22
2023-02-22T04:30:21.370Z,101144.75
2023-02-22T04:32:48.122Z,101141.47
2023-02-22T04:35:14.751Z,101135.50
2023-02-22T04:37:41.195Z,101142.09
2023-02-22T04:40:08.256Z,101142.22
2023-02-22T04:42:36.102Z,101145.50
2023-02-22T04:45:03.417Z,101138.44
2023-02-22T04:47:29.955Z,101128.44
2023-02-22T04:49:56.452Z,101131.34
2023-02-22T04:52:22.884Z,101125.75
2023-02-22T04:54:49.302Z,101119.19
2023-02-22T04:57:15.747Z,101114.19
2023-02-22T04:59:42.240Z,101114.78
2023-02-22T05:02:08.849Z,101117.88
2023-02-22T05:04:37.846Z,101103.50
2023-02-22T05:07:05.055Z,101106.41
2023-02-22T05:09:31.543Z,101100.66
2023-02-22T05:11:58.003Z,101088.84
2023-02-22T05:14:26.827Z,101088.22
2023-02-22T05:16:59.608Z,101081.16
2023-02-22T05:19:26.131Z,101087.25
2023-02-22T05:21:52.527Z,101085.06
2023-02-22T05:24:19.089Z,101087.91
2023-02-22T05:26:46.405Z,101094.50
2023-02-22T05:29:13.211Z,101091.81
2023-02-22T05:31:41.854Z,101097.88
2023-02-22T05:34:11.354Z,101095.06
2023-02-22T05:36:37.868Z,101094.34
2023-02-22T05:39:05.489Z,101093.25
2023-02-22T05:41:32.096Z,101085.84
2023-02-22T05:43:58.701Z,101081.56
2023-02-22T05:46:25.249Z,101092.28
2023-02-22T05:48:51.787Z,101084.97
2023-02-22T05:51:19.657Z,101082.31
2023-02-22T05:53:46.420Z,101081.69
2023-02-22T05:56:12.827Z,101075.75
2023-02-22T05:58:39.225Z,101061.97
2023-02-22T06:01:05.836Z,101065.50
2023-02-22T06:03:32.298Z,101073.44
2023-02-22T06:05:58.918Z,101072.59
2023-02-22T06:08:25.307Z,101080.97
2023-02-22T06:10:51.766Z,101080.69
2023-02-22T06:13:18.213Z,101071.13
2023-02-22T06:15:44.715Z,101074.63
2023-02-22T06:18:11.207Z,101072.09
2023-02-22T06:20:37.778Z,101071.13
2023-02-22T06:23:04.561Z,101071.59
2023-02-22T06:25:31.877Z,101072.66
2023-02-22T06:28:00.500Z,101073.19
2023-02-22T06:30:27.357Z,101069.19
2023-02-22T06:32:53.883Z,101068.66
2023-02-22T06:35:20.769Z,101069.06
2023-02-22T06:37:47.554Z,101073.19
2023-02-22T06:40:14.642Z,101054.94
2023-02-22T06:42:41.542Z,101052.50
2023-02-22T06:45:08.753Z,101052.03
2023-02-22T06:47:41.298Z,101041.06
2023-02-22T06:50:11.883Z,101037.16
2023-02-22T06:52:42.672Z,101033.09
2023-02-22T06:55:09.158Z,101047.22
2023-02-22T06:57:35.614Z,101042.66
2023-02-22T07:00:02.045Z,101043.13
2023-02-22T07:02:28.502Z,101038.09
2023-02-22T07:04:54.904Z,101034.56
2023-02-22T07:07:25.138Z,101029.34
2023-02-22T07:09:51.561Z,101038.44
2023-02-22T07:12:18.018Z,101035.50
2023-02-22T07:14:44.467Z,101031.97
2023-02-22T07:17:11.576Z,101038.28
2023-02-22T07:19:38.902Z,101037.31
2023-02-22T07:22:06.228Z,101038.56
2023-02-22T07:24:35.061Z,101040.69
2023-02-22T07:27:02.544Z,101031.44
2023-02-22T07:29:29.169Z,101035.59
2023-02-22T07:31:56.066Z,101041.22
2023-02-22T07:34:22.520Z,101047.31
2023-02-22T07:36:49.119Z,101047.16
2023-02-22T07:39:15.599Z,101052.75
2023-02-22T07:41:42.043Z,101046.44
2023-02-22T07:44:08.467Z,101047.34
2023-02-22T07:46:34.907Z,101055.69
2023-02-22T07:49:01.359Z,101058.47
2023-02-22T07:51:27.823Z,101048.03
2023-02-22T07:53:54.325Z,101049.13
2023-02-22T07:56:20.801Z,101056.69
2023-02-22T07:58:47.290Z,101061.03
2023-02-22T08:01:14.365Z,101050.22
2023-02-22T08:03:40.827Z,101058.09
2023-02-22T08:06:08.311Z,101058.31
2023-02-22T08:08:35.153Z,101052.28
2023-02-22T08:11:01.675Z,101050.22
2023-02-22T08:13:28.225Z,101056.63
2023-02-22T08:15:55.078Z,101052.84
2023-02-22T08:18:23.612Z,101046.03
2023-02-22T08:20:52.165Z,101047.00
2023-02-22T08:23:20.111Z,101051.25
2023-02-22T08:25:46.658Z,101060.63
2023-02-22T08:28:15.681Z,101070.13
2023-02-22T08:30:43.807Z,101065.03
2023-02-22T08:33:14.356Z,101065.28
2023-02-22T08:35:41.376Z,101064.09
2023-02-22T08:38:14.649Z,101065.44
2023-02-22T08:40:41.071Z,101063.00
2023-02-22T08:43:07.513Z,101063.94
2023-02-22T08:45:34.000Z,101061.91
2023-02-22T08:48:00.482Z,101065.41
2023-02-22T08:50:30.133Z,101064.56
2023-02-22T08:52:59.372Z,101062.44
2023-02-22T08:55:28.878Z,101061.84
2023-02-22T08:57:55.324Z,101051.63
2023-02-22T09:00:25.264Z,101051.81
2023-02-22T09:02:52.712Z,101044.72
2023-02-22T09:05:19.547Z,101039.19
2023-02-22T09:07:46.048Z,101031.16
2023-02-22T09:10:17.698Z,101025.00
2023-02-22T09:12:44.257Z,101013.63
2023-02-22T09:15:11.506Z,101015.59
2023-02-22T09:17:38.511Z,101014.50
2023-02-22T09:20:06.772Z,101010.16
2023-02-22T09:22:33.344Z,101003.09
2023-02-22T09:25:02.631Z,101002.44
2023-02-22T09:27:34.373Z,100998.00
2023-02-22T09:30:00.894Z,100991.72
2023-02-22T09:32:28.109Z,100987.03
2023-02-22T09:34:55.711Z,100985.31
2023-02-22T09:37:22.345Z,100982.41
2023-02-22T09:39:48.896Z,100983.72
2023-02-22T09:42:21.069Z,100984.25
2023-02-22T09:44:55.704Z,100976.06
2023-02-22T09:47:38.853Z,100975.91
2023-02-22T09:50:16.108Z,100980.31
2023-02-22T09:52:42.461Z,100986.75
2023-02-22T09:55:39.305Z,100979.41
2023-02-22T09:58:39.777Z,100985.16
2023-02-22T10:01:20.050Z,100974.97
2023-02-22T10:03:56.559Z,100965.53
2023-02-22T10:06:25.077Z,100945.56
2023-02-22T10:08:56.402Z,100932.97
2023-02-22T10:11:28.668Z,100920.03
2023-02-22T10:14:20.061Z,100916.13
2023-02-22T10:17:22.987Z,100912.44
2023-02-22T10:19:49.405Z,100909.88
2023-02-22T10:22:34.029Z,100905.53
2023-02-22T10:25:05.209Z,100908.06
2023-02-22T10:27:42.297Z,100893.66
2023-02-22T10:30:25.109Z,100888.22
2023-02-22T10:33:05.257Z,100892.88
2023-02-22T10:35:37.409Z,100892.72
2023-02-22T10:38:20.352Z,100889.81
2023-02-22T10:40:55.451Z,100885.56
2023-02-22T10:43:23.394Z,100887.19
2023-02-22T10:45:55.819Z,100886.91
2023-02-22T10:48:24.976Z,100879.47
2023-02-22T10:50:54.126Z,100876.31
2023-02-22T10:53:20.514Z,100880.50
2023-02-22T10:56:05.673Z,100882.22
2023-02-22T10:58:41.805Z,100886.97
2023-02-22T11:01:20.497Z,100882.69
2023-02-22T11:03:57.212Z,100895.38
2023-02-22T11:06:24.162Z,100897.72
2023-02-22T11:08:52.134Z,100894.09
2023-02-22T11:11:25.860Z,100885.41
2023-02-22T11:13:56.609Z,100879.72
2023-02-22T11:16:25.866Z,100882.81
2023-02-22T11:19:01.473Z,100893.34
2023-02-22T11:21:31.560Z,100899.22
2023-02-22T11:24:08.718Z,100899.09
2023-02-22T11:26:54.956Z,100893.88
2023-02-22T11:29:27.533Z,100904.69
2023-02-22T11:31:55.613Z,100908.63
2023-02-22T11:34:29.001Z,100909.63
2023-02-22T11:36:56.555Z,100907.00
2023-02-22T11:39:29.051Z,100895.25
2023-02-22T11:41:56.648Z,100891.09
2023-02-22T11:44:24.825Z,100880.75
2023-02-22T11:46:55.741Z,100880.53
2023-02-22T11:49:34.008Z,100870.53
2023-02-22T11:52:14.415Z,100862.78
2023-02-22T11:55:43.251Z,100864.56
2023-02-22T11:58:40.613Z,100857.09
2023-02-22T12:01:22.187Z,100842.88
2023-02-22T12:03:51.737Z,100844.03
2023-02-22T12:06:40.438Z,100849.44
2023-02-22T12:09:41.968Z,100850.00
2023-02-22T12:12:21.518Z,100849.81
2023-02-22T12:15:07.612Z,100845.38
2023-02-22T12:18:06.492Z,100843.38
2023-02-22T12:20:40.671Z,100836.63
2023-02-22T12:23:10.114Z,100837.69
2023-02-22T12:25:45.068Z,100836.81
2023-02-22T12:28:24.840Z,100831.16
2023-02-22T12:31:23.657Z,100834.59
2023-02-22T12:33:57.165Z,100817.25
2023-02-22T12:36:33.004Z,100821.25
2023-02-22T12:39:07.397Z,100826.88
2023-02-22T12:41:48.416Z,100835.91
2023-02-22T12:44:20.327Z,100840.72
2023-02-22T12:46:54.961Z,100841.34
2023-02-22T12:50:03.378Z,100842.53
2023-02-22T12:52:47.791Z,100838.91
2023-02-22T12:55:23.154Z,100831.34
2023-02-22T12:57:59.530Z,100826.88
2023-02-22T13:00:43.082Z,100822.84
2023-02-22T13:03:18.318Z,100832.28
2023-02-22T13:05:55.094Z,100839.69
2023-02-22T13:08:34.268Z,100838.34
2023-02-22T13:11:36.904Z,100839.50
2023-02-22T13:14:37.849Z,100838.53
2023-02-22T13:17:22.538Z,100837.34
2023-02-22T13:20:07.822Z,100826.94
2023-02-22T13:22:43.313Z,100823.59
2023-02-22T13:25:19.640Z,100812.28
2023-02-22T13:27:52.459Z,100811.59
2023-02-22T13:30:38.943Z,100815.03
2023-02-22T13:33:17.297Z,100814.13
2023-02-22T13:36:03.721Z,100825.47
2023-02-22T13:38:45.836Z,100830.97
2023-02-22T13:41:40.084Z,100829.50
2023-02-22T13:44:23.318Z,100823.81
2023-02-22T13:47:05.062Z,100816.72
2023-02-22T13:49:53.399Z,100822.97
2023-02-22T13:52:26.149Z,100823.63
2023-02-22T13:55:00.311Z,100812.84
2023-02-22T13:57:48.559Z,100816.28
2023-02-22T14:00:14.972Z,100809.31
2023-02-22T14:03:02.442Z,100813.03
2023-02-22T14:05:51.964Z,100821.97
2023-02-22T14:08:25.368Z,100816.09
2023-02-22T14:10:56.390Z,100810.63
2023-02-22T14:13:30.519Z,100813.13
2023-02-22T14:16:02.754Z,100813.66
2023-02-22T14:18:33.900Z,100821.06
2023-02-22T14:21:07.926Z,100827.25
2023-02-22T14:23:40.420Z,100823.06
2023-02-22T14:26:15.881Z,100823.38
2023-02-22T14:28:50.098Z,100829.31
2023-02-22T14:31:34.977Z,100829.78
2023-02-22T14:34:09.404Z,100825.03
2023-02-22T14:37:07.643Z,100827.00
2023-02-22T14:39:43.525Z,100831.09
2023-02-22T14:42:25.407Z,100827.38
2023-02-22T14:45:04.890Z,100840.50
2023-02-22T14:47:49.884Z,100843.75
2023-02-22T14:50:27.045Z,100847.91
2023-02-22T14:53:11.562Z,100850.78
2023-02-22T14:55:46.795Z,100852.38
2023-02-22T14:58:25.687Z,100850.47
2023-02-22T15:00:56.630Z,100840.06
2023-02-22T15:03:39.804Z,100847.84
2023-02-22T15:06:10.931Z,100856.41
2023-02-22T15:08:41.641Z,100848.50
2023-02-22T15:11:31.016Z,100853.88
2023-02-22T15:13:58.390Z,100852.84
2023-02-22T15:16:27.701Z,100854.41
2023-02-22T15:18:58.014Z,100850.47
2023-02-22T15:21:27.549Z,100856.72
2023-02-22T15:24:07.713Z,100855.47
2023-02-22T15:26:51.899Z,100856.66
2023-02-22T15:29:21.425Z,100855.34
2023-02-22T15:31:48.718Z,100862.59
2023-02-22T15:34:15.365Z,100861.56
2023-02-22T15:36:43.887Z,100859.03
2023-02-22T15:39:29.586Z,100862.50
2023-02-22T15:42:21.023Z,100864.53
2023-02-22T15:44:49.794Z,100876.50
2023-02-22T15:47:21.666Z,100883.44
2023-02-22T15:50:25.947Z,100878.06
2023-02-22T15:53:06.719Z,100881.22
2023-02-22T15:55:47.417Z,100881.22
2023-02-22T15:58:23.912Z,100880.13
2023-02-22T16:00:59.440Z,100880.53
2023-02-22T16:03:28.774Z,100876.84
2023-02-22T16:05:57.026Z,100876.84
2023-02-22T16:08:29.312Z,100880.28
2023-02-22T16:11:02.810Z,100882.44
2023-02-22T16:13:33.898Z,100878.34
2023-02-22T16:16:02.132Z,100885.91
2023-02-22T16:18:37.736Z,100887.56
2023-02-22T16:21:07.712Z,100901.28
2023-02-22T16:23:48.232Z,100892.34
2023-02-22T16:26:29.871Z,100897.34
2023-02-22T16:29:02.022Z,100894.78
2023-02-22T16:31:39.713Z,100894.38
2023-02-22T16:34:08.139Z,100896.56
2023-02-22T16:36:41.848Z,100900.53
2023-02-22T16:39:14.122Z,100899.53
2023-02-22T16:41:40.647Z,100898.22
2023-02-22T16:44:07.948Z,100903.38
2023-02-22T16:46:35.099Z,100911.16
2023-02-22T16:49:03.399Z,100897.69
2023-02-22T16:51:34.955Z,100907.81
2023-02-22T16:54:02.355Z,100911.34
2023-02-22T16:56:31.149Z,100915.03
2023-02-22T16:59:01.131Z,100918.19
2023-02-22T17:01:27.644Z,100924.81
2023-02-22T17:03:54.158Z,100928.38
2023-02-22T17:06:21.234Z,100928.66
2023-02-22T17:08:48.781Z,100927.50
2023-02-22T17:11:15.260Z,100930.03
2023-02-22T17:13:41.673Z,100933.88
2023-02-22T17:16:14.670Z,100936.88
2023-02-22T17:18:41.209Z,100940.28
2023-02-22T17:21:10.760Z,100941.97
2023-02-22T17:23:37.273Z,100942.97
2023-02-22T17:26:04.230Z,100948.59
2023-02-22T17:28:31.670Z,100944.19
2023-02-22T17:31:02.578Z,100941.66
2023-02-22T17:33:32.917Z,100940.41
2023-02-22T17:36:01.827Z,100942.81
2023-02-22T17:38:30.400Z,100936.72
2023-02-22T17:40:59.453Z,100942.81
2023-02-22T17:43:27.816Z,100945.22
2023-02-22T17:45:54.643Z,100946.94
2023-02-22T17:48:23.878Z,100952.03
2023-02-22T17:50:51.305Z,100958.69
2023-02-22T17:53:21.758Z,100960.28
2023-02-22T17:55:48.623Z,100960.69
2023-02-22T17:58:15.528Z,100965.81
2023-02-22T18:00:46.072Z,100964.53
2023-02-22T18:03:16.111Z,100960.28
2023-02-22T18:05:46.363Z,100967.91
2023-02-22T18:08:14.509Z,100967.63
2023-02-22T18:10:42.490Z,100967.63
2023-02-22T18:13:12.745Z,100963.53
2023-02-22T18:15:40.044Z,100976.16
2023-02-22T18:18:06.635Z,100964.22
2023-02-22T18:20:38.267Z,100967.22
2023-02-22T18:23:10.755Z,100971.75
2023-02-22T18:25:38.066Z,100970.06
2023-02-22T18:28:06.329Z,100976.88
2023-02-22T18:30:35.852Z,100975.34
2023-02-22T18:33:03.723Z,100980.03
2023-02-22T18:35:30.963Z,100980.16
2023-02-22T18:37:57.413Z,100979.56
2023-02-22T18:40:23.967Z,100979.28
2023-02-22T18:42:50.429Z,100977.72
2023-02-22T18:45:17.215Z,100968.22
2023-02-22T18:47:45.520Z,100970.06
2023-02-22T18:50:12.995Z,100975.28
2023-02-22T18:52:45.795Z,100964.69
2023-02-22T18:55:17.350Z,100968.75
2023-02-22T18:57:45.110Z,100971.22
2023-02-22T19:00:16.803Z,100975.47
2023-02-22T19:02:43.662Z,100964.00
2023-02-22T19:05:11.538Z,100974.47
2023-02-22T19:07:38.693Z,100974.34
2023-02-22T19:10:06.950Z,100978.59
2023-02-22T19:12:33.915Z,100988.22
2023-02-22T19:15:00.658Z,100985.25
2023-02-22T19:17:28.884Z,100981.97
2023-02-22T19:19:55.913Z,100980.44
2023-02-22T19:22:25.945Z,100985.41
2023-02-22T19:24:55.870Z,100982.44
2023-02-22T19:27:23.495Z,100988.91
2023-02-22T19:29:50.027Z,100993.19
2023-02-22T19:32:17.454Z,100994.75
2023-02-22T19:34:44.555Z,100997.16
2023-02-22T19:37:13.168Z,100994.59
2023-02-22T19:39:41.841Z,100995.56
2023-02-22T19:42:09.989Z,100992.75
2023-02-22T19:44:37.360Z,100996.13
2023-02-22T19:47:08.898Z,100999.69
2023-02-22T19:49:41.041Z,100996.41
2023-02-22T19:52:07.471Z,101006.34
2023-02-22T19:54:33.980Z,101003.34
2023-02-22T19:57:01.067Z,101007.34
2023-02-22T19:59:28.155Z,101015.13
2023-02-22T20:01:56.215Z,101009.19
2023-02-22T20:04:23.685Z,101013.13
2023-02-22T20:06:54.528Z,101007.91
2023-02-22T20:09:30.316Z,101010.88
2023-02-22T20:11:57.053Z,101022.06
2023-02-22T20:14:28.419Z,101014.84
2023-02-22T20:16:55.621Z,101021.50
2023-02-22T20:19:26.711Z,101021.09
2023-02-22T20:21:58.201Z,101023.22
2023-02-22T20:24:25.145Z,101022.50
2023-02-22T20:26:55.685Z,101025.38
2023-02-22T20:29:29.279Z,101027.91
2023-02-22T20:31:58.044Z,101035.81
2023-02-22T20:34:26.572Z,101040.38
2023-02-22T20:36:53.646Z,101041.78
2023-02-22T20:39:20.296Z,101048.28
2023-02-22T20:41:47.001Z,101047.44
2023-02-22T20:44:16.025Z,101043.47
2023-02-22T20:46:43.529Z,101046.28
2023-02-22T20:49:13.257Z,101044.63
2023-02-22T20:51:40.352Z,101044.03
2023-02-22T20:54:08.509Z,101050.97
2023-02-22T20:56:34.963Z,101051.25
2023-02-22T20:59:03.734Z,101056.19
2023-02-22T21:01:30.872Z,101056.19
2023-02-22T21:04:05.234Z,101061.16
2023-02-22T21:06:34.488Z,101062.31
2023-02-22T21:09:02.920Z,101061.03
2023-02-22T21:11:31.577Z,101054.22
2023-02-22T21:13:59.425Z,101055.38
2023-02-22T21:16:36.888Z,101057.78
2023-02-22T21:19:06.517Z,101055.34
2023-02-22T21:21:33.103Z,101061.03
2023-02-22T21:24:01.754Z,101061.44
2023-02-22T21:26:31.541Z,101055.78
2023-02-22T21:29:00.671Z,101058.91
2023-02-22T21:31:28.442Z,101050.41
2023-02-22T21:33:58.046Z,101052.25
2023-02-22T21:36:26.314Z,101047.44
2023-02-22T21:39:00.988Z,101049.84
2023-02-22T21:41:29.445Z,101056.47
2023-02-22T21:43:57.763Z,101045.44
2023-02-22T21:46:26.220Z,101051.94
2023-02-22T21:48:52.766Z,101047.69
2023-02-22T21:51:22.317Z,101048.56
2023-02-22T21:53:53.764Z,101048.13
2023-02-22T21:56:29.190Z,101046.56
2023-02-22T21:59:00.416Z,101053.25
2023-02-22T22:01:28.616Z,101050.28
2023-02-22T22:03:56.636Z,101052.97
2023-02-22T22:06:23.194Z,101048.56
2023-02-22T22:08:50.409Z,101043.47
2023-02-22T22:11:17.978Z,101042.63
2023-02-22T22:13:45.379Z,101048.69
2023-02-22T22:16:18.075Z,101047.44
2023-02-22T22:18:46.843Z,101052.13
2023-02-22T22:21:18.239Z,101047.44
2023-02-22T22:23:47.233Z,101047.44
2023-02-22T22:26:16.401Z,101054.53
2023-02-22T22:28:56.049Z,101049.97
2023-02-22T22:31:24.713Z,101050.97
2023-02-22T22:33:52.414Z,101049.97
2023-02-22T22:36:21.439Z,101050.28
2023-02-22T22:38:48.713Z,101044.75
2023-02-22T22:41:19.102Z,101044.91
2023-02-22T22:43:46.648Z,101042.06
2023-02-22T22:46:17.297Z,101045.72
2023-02-22T22:48:47.017Z,101039.06
2023-02-22T22:51:18.299Z,101045.72
2023-02-22T22:53:46.702Z,101040.06
2023-02-22T22:56:26.007Z,101040.22
2023-02-22T22:58:55.643Z,101041.06
2023-02-22T23:01:28.357Z,101039.09
2023-02-22T23:04:01.588Z,101050.41
2023-02-22T23:06:34.413Z,101045.31
2023-02-22T23:09:11.761Z,101054.94
2023-02-22T23:11:44.611Z,101047.56
2023-02-22T23:14:14.068Z,101046.47
2023-02-22T23:16:42.389Z,101044.91
2023-02-22T23:19:09.335Z,101055.91
2023-02-22T23:21:36.156Z,101054.06
2023-02-22T23:24:06.199Z,101046.88
2023-02-22T23:26:33.266Z,101050.84
2023-02-22T23:29:00.469Z,101047.00
2023-02-22T23:31:29.998Z,101047.88
2023-02-22T23:33:58.745Z,101046.84
2023-02-22T23:36:26.504Z,101049.97
2023-02-22T23:38:52.998Z,101054.94
2023-02-22T23:41:19.869Z,101055.66
2023-02-22T23:43:47.282Z,101054.94
2023-02-22T23:46:18.552Z,101053.78
2023-02-22T23:48:54.541Z,101056.50
2023-02-22T23:51:25.891Z,101066.81
2023-02-22T23:53:55.868Z,101056.78
2023-02-22T23:56:27.379Z,101057.78
2023-02-22T23:58:57.385Z,101058.75
